sensor_id;sensor_type;location;lat;lon;timestamp;temperature;humidity
21891;DHT22;11110;52.386;16.940;2023-04-29T00:02:20;25.30;34.50
21891;DHT22;11110;52.386;16.940;2023-04-29T00:04:49;25.30;34.60
21891;DHT22;11110;52.386;16.940;2023-04-29T00:07:20;25.30;34.70
21891;DHT22;11110;52.386;16.940;2023-04-29T00:09:48;25.30;34.50
21891;DHT22;11110;52.386;16.940;2023-04-29T00:12:17;25.20;34.60
21891;DHT22;11110;52.386;16.940;2023-04-29T00:14:46;25.20;34.60
21891;DHT22;11110;52.386;16.940;2023-04-29T00:17:14;25.20;34.80
21891;DHT22;11110;52.386;16.940;2023-04-29T00:19:44;25.20;34.90
21891;DHT22;11110;52.386;16.940;2023-04-29T00:22:12;25.20;34.90
21891;DHT22;11110;52.386;16.940;2023-04-29T00:24:42;25.20;34.70
21891;DHT22;11110;52.386;16.940;2023-04-29T00:27:10;25.20;35.00
21891;DHT22;11110;52.386;16.940;2023-04-29T00:29:39;25.20;35.10
21891;DHT22;11110;52.386;16.940;2023-04-29T00:32:07;25.20;35.20
21891;DHT22;11110;52.386;16.940;2023-04-29T00:34:36;25.20;35.20
21891;DHT22;11110;52.386;16.940;2023-04-29T00:37:05;25.20;35.10
21891;DHT22;11110;52.386;16.940;2023-04-29T00:39:33;25.20;35.10
21891;DHT22;11110;52.386;16.940;2023-04-29T00:42:03;25.20;35.10
21891;DHT22;11110;52.386;16.940;2023-04-29T00:44:33;25.20;35.20
21891;DHT22;11110;52.386;16.940;2023-04-29T00:47:02;25.20;35.40
21891;DHT22;11110;52.386;16.940;2023-04-29T00:49:31;25.20;35.40
21891;DHT22;11110;52.386;16.940;2023-04-29T00:52:00;25.20;35.50
21891;DHT22;11110;52.386;16.940;2023-04-29T00:54:29;25.20;35.30
21891;DHT22;11110;52.386;16.940;2023-04-29T00:56:59;25.20;35.30
21891;DHT22;11110;52.386;16.940;2023-04-29T00:59:30;25.10;35.30
21891;DHT22;11110;52.386;16.940;2023-04-29T01:02:00;25.10;35.20
21891;DHT22;11110;52.386;16.940;2023-04-29T01:04:29;25.10;35.60
21891;DHT22;11110;52.386;16.940;2023-04-29T01:07:03;25.20;35.70
21891;DHT22;11110;52.386;16.940;2023-04-29T01:09:49;25.20;35.70
21891;DHT22;11110;52.386;16.940;2023-04-29T01:12:26;25.20;35.80
21891;DHT22;11110;52.386;16.940;2023-04-29T01:15:03;25.20;36.00
21891;DHT22;11110;52.386;16.940;2023-04-29T01:17:38;25.20;36.10
21891;DHT22;11110;52.386;16.940;2023-04-29T01:20:09;25.10;36.00
21891;DHT22;11110;52.386;16.940;2023-04-29T01:22:38;25.20;36.20
21891;DHT22;11110;52.386;16.940;2023-04-29T01:25:08;25.10;36.00
21891;DHT22;11110;52.386;16.940;2023-04-29T01:28:04;25.10;35.80
21891;DHT22;11110;52.386;16.940;2023-04-29T01:30:44;25.10;36.20
21891;DHT22;11110;52.386;16.940;2023-04-29T01:33:21;25.10;36.00
21891;DHT22;11110;52.386;16.940;2023-04-29T01:36:07;25.10;36.20
21891;DHT22;11110;52.386;16.940;2023-04-29T01:38:43;25.10;36.30
21891;DHT22;11110;52.386;16.940;2023-04-29T01:41:23;25.10;36.40
21891;DHT22;11110;52.386;16.940;2023-04-29T01:44:02;25.00;36.20
21891;DHT22;11110;52.386;16.940;2023-04-29T01:46:32;24.90;36.40
21891;DHT22;11110;52.386;16.940;2023-04-29T01:49:01;24.90;36.50
21891;DHT22;11110;52.386;16.940;2023-04-29T01:51:30;25.00;37.00
21891;DHT22;11110;52.386;16.940;2023-04-29T01:54:00;24.90;37.00
21891;DHT22;11110;52.386;16.940;2023-04-29T01:56:32;24.90;37.00
21891;DHT22;11110;52.386;16.940;2023-04-29T01:59:11;25.00;37.20
21891;DHT22;11110;52.386;16.940;2023-04-29T02:02:09;25.00;37.30
21891;DHT22;11110;52.386;16.940;2023-04-29T02:04:45;24.90;37.20
21891;DHT22;11110;52.386;16.940;2023-04-29T02:07:14;24.90;37.20
21891;DHT22;11110;52.386;16.940;2023-04-29T02:09:43;24.90;36.80
21891;DHT22;11110;52.386;16.940;2023-04-29T02:12:13;24.80;36.90
21891;DHT22;11110;52.386;16.940;2023-04-29T02:14:42;24.80;37.00
21891;DHT22;11110;52.386;16.940;2023-04-29T02:17:11;24.80;37.40
21891;DHT22;11110;52.386;16.940;2023-04-29T02:19:40;24.90;37.70
21891;DHT22;11110;52.386;16.940;2023-04-29T02:22:09;24.80;37.20
21891;DHT22;11110;52.386;16.940;2023-04-29T02:24:40;24.80;37.20
21891;DHT22;11110;52.386;16.940;2023-04-29T02:27:09;24.90;38.00
21891;DHT22;11110;52.386;16.940;2023-04-29T02:29:39;24.90;38.00
21891;DHT22;11110;52.386;16.940;2023-04-29T02:32:08;25.00;38.00
21891;DHT22;11110;52.386;16.940;2023-04-29T02:34:37;24.90;37.70
21891;DHT22;11110;52.386;16.940;2023-04-29T02:37:06;24.90;37.70
21891;DHT22;11110;52.386;16.940;2023-04-29T02:39:34;24.90;37.80
21891;DHT22;11110;52.386;16.940;2023-04-29T02:42:03;24.90;38.50
21891;DHT22;11110;52.386;16.940;2023-04-29T02:44:31;24.90;37.70
21891;DHT22;11110;52.386;16.940;2023-04-29T02:47:01;24.80;37.70
21891;DHT22;11110;52.386;16.940;2023-04-29T02:49:29;24.80;38.30
21891;DHT22;11110;52.386;16.940;2023-04-29T02:51:58;24.80;37.70
21891;DHT22;11110;52.386;16.940;2023-04-29T02:54:26;24.80;37.70
21891;DHT22;11110;52.386;16.940;2023-04-29T02:56:55;24.80;38.10
21891;DHT22;11110;52.386;16.940;2023-04-29T02:59:24;24.80;38.50
21891;DHT22;11110;52.386;16.940;2023-04-29T03:01:53;24.80;38.50
21891;DHT22;11110;52.386;16.940;2023-04-29T03:04:23;24.80;39.00
21891;DHT22;11110;52.386;16.940;2023-04-29T03:06:51;24.80;39.30
21891;DHT22;11110;52.386;16.940;2023-04-29T03:09:22;24.80;39.30
21891;DHT22;11110;52.386;16.940;2023-04-29T03:11:50;24.80;39.60
21891;DHT22;11110;52.386;16.940;2023-04-29T03:14:19;24.70;39.70
21891;DHT22;11110;52.386;16.940;2023-04-29T03:16:48;24.70;39.90
21891;DHT22;11110;52.386;16.940;2023-04-29T03:19:17;24.70;39.70
21891;DHT22;11110;52.386;16.940;2023-04-29T03:21:46;24.70;39.80
21891;DHT22;11110;52.386;16.940;2023-04-29T03:24:20;24.80;40.10
21891;DHT22;11110;52.386;16.940;2023-04-29T03:26:48;24.80;40.30
21891;DHT22;11110;52.386;16.940;2023-04-29T03:29:19;24.80;40.10
21891;DHT22;11110;52.386;16.940;2023-04-29T03:31:48;24.80;40.30
21891;DHT22;11110;52.386;16.940;2023-04-29T03:34:16;24.80;40.30
21891;DHT22;11110;52.386;16.940;2023-04-29T03:36:54;24.80;40.40
21891;DHT22;11110;52.386;16.940;2023-04-29T03:39:23;24.80;40.50
21891;DHT22;11110;52.386;16.940;2023-04-29T03:41:52;24.80;40.50
21891;DHT22;11110;52.386;16.940;2023-04-29T03:44:21;24.90;40.80
21891;DHT22;11110;52.386;16.940;2023-04-29T03:46:50;24.80;41.40
21891;DHT22;11110;52.386;16.940;2023-04-29T03:49:21;24.80;40.60
21891;DHT22;11110;52.386;16.940;2023-04-29T03:51:50;24.80;40.70
21891;DHT22;11110;52.386;16.940;2023-04-29T03:54:20;24.70;40.40
21891;DHT22;11110;52.386;16.940;2023-04-29T03:56:48;24.80;40.50
21891;DHT22;11110;52.386;16.940;2023-04-29T03:59:17;24.70;40.40
21891;DHT22;11110;52.386;16.940;2023-04-29T04:01:45;24.70;40.30
21891;DHT22;11110;52.386;16.940;2023-04-29T04:04:14;24.70;40.20
21891;DHT22;11110;52.386;16.940;2023-04-29T04:06:46;24.70;40.20
21891;DHT22;11110;52.386;16.940;2023-04-29T04:09:21;24.70;40.40
21891;DHT22;11110;52.386;16.940;2023-04-29T04:11:50;24.70;40.30
21891;DHT22;11110;52.386;16.940;2023-04-29T04:14:19;24.70;40.10
21891;DHT22;11110;52.386;16.940;2023-04-29T04:16:48;24.60;39.80
21891;DHT22;11110;52.386;16.940;2023-04-29T04:19:17;24.60;39.80
21891;DHT22;11110;52.386;16.940;2023-04-29T04:21:45;24.60;39.60
21891;DHT22;11110;52.386;16.940;2023-04-29T04:24:14;24.60;39.60
21891;DHT22;11110;52.386;16.940;2023-04-29T04:26:44;24.60;39.50
21891;DHT22;11110;52.386;16.940;2023-04-29T04:29:23;24.60;39.60
21891;DHT22;11110;52.386;16.940;2023-04-29T04:31:55;24.70;40.20
21891;DHT22;11110;52.386;16.940;2023-04-29T04:34:24;24.70;39.80
21891;DHT22;11110;52.386;16.940;2023-04-29T04:36:56;24.70;39.90
21891;DHT22;11110;52.386;16.940;2023-04-29T04:39:24;24.70;40.00
21891;DHT22;11110;52.386;16.940;2023-04-29T04:41:57;24.80;40.00
21891;DHT22;11110;52.386;16.940;2023-04-29T04:44:27;24.80;39.90
21891;DHT22;11110;52.386;16.940;2023-04-29T04:47:06;24.80;40.10
21891;DHT22;11110;52.386;16.940;2023-04-29T04:49:56;24.80;40.20
21891;DHT22;11110;52.386;16.940;2023-04-29T04:52:26;24.70;40.40
21891;DHT22;11110;52.386;16.940;2023-04-29T04:55:16;24.70;40.60
21891;DHT22;11110;52.386;16.940;2023-04-29T04:57:50;24.60;40.50
21891;DHT22;11110;52.386;16.940;2023-04-29T05:00:18;24.70;40.80
21891;DHT22;11110;52.386;16.940;2023-04-29T05:02:47;24.70;41.00
21891;DHT22;11110;52.386;16.940;2023-04-29T05:05:15;24.70;41.10
21891;DHT22;11110;52.386;16.940;2023-04-29T05:07:44;24.70;41.30
21891;DHT22;11110;52.386;16.940;2023-04-29T05:10:14;24.70;41.20
21891;DHT22;11110;52.386;16.940;2023-04-29T05:12:50;24.80;41.30
21891;DHT22;11110;52.386;16.940;2023-04-29T05:15:19;24.80;41.20
21891;DHT22;11110;52.386;16.940;2023-04-29T05:17:50;24.70;41.00
21891;DHT22;11110;52.386;16.940;2023-04-29T05:20:18;24.80;41.00
21891;DHT22;11110;52.386;16.940;2023-04-29T05:22:48;24.80;41.00
21891;DHT22;11110;52.386;16.940;2023-04-29T05:25:16;24.80;41.00
21891;DHT22;11110;52.386;16.940;2023-04-29T05:27:45;24.80;40.80
21891;DHT22;11110;52.386;16.940;2023-04-29T05:30:18;24.90;40.70
21891;DHT22;11110;52.386;16.940;2023-04-29T05:32:46;24.90;40.40
21891;DHT22;11110;52.386;16.940;2023-04-29T05:35:17;25.00;40.40
21891;DHT22;11110;52.386;16.940;2023-04-29T05:37:45;24.90;40.10
21891;DHT22;11110;52.386;16.940;2023-04-29T05:40:34;25.00;39.80
21891;DHT22;11110;52.386;16.940;2023-04-29T05:43:32;25.00;39.60
21891;DHT22;11110;52.386;16.940;2023-04-29T05:46:01;25.00;39.70
21891;DHT22;11110;52.386;16.940;2023-04-29T05:48:30;25.00;39.60
21891;DHT22;11110;52.386;16.940;2023-04-29T05:50:58;25.00;39.60
21891;DHT22;11110;52.386;16.940;2023-04-29T05:53:26;24.90;39.60
21891;DHT22;11110;52.386;16.940;2023-04-29T05:55:55;24.90;39.60
21891;DHT22;11110;52.386;16.940;2023-04-29T05:58:24;24.90;39.60
21891;DHT22;11110;52.386;16.940;2023-04-29T06:00:53;24.90;39.90
21891;DHT22;11110;52.386;16.940;2023-04-29T06:03:26;24.90;39.90
21891;DHT22;11110;52.386;16.940;2023-04-29T06:06:18;25.00;39.70
21891;DHT22;11110;52.386;16.940;2023-04-29T06:09:02;25.00;39.60
21891;DHT22;11110;52.386;16.940;2023-04-29T06:11:40;25.00;39.70
21891;DHT22;11110;52.386;16.940;2023-04-29T06:14:10;25.00;39.70
21891;DHT22;11110;52.386;16.940;2023-04-29T06:16:38;25.10;39.60
21891;DHT22;11110;52.386;16.940;2023-04-29T06:19:09;25.10;39.50
21891;DHT22;11110;52.386;16.940;2023-04-29T06:21:38;25.20;39.60
21891;DHT22;11110;52.386;16.940;2023-04-29T06:24:06;25.30;39.60
21891;DHT22;11110;52.386;16.940;2023-04-29T06:26:35;25.20;39.20
21891;DHT22;11110;52.386;16.940;2023-04-29T06:29:03;25.30;39.10
21891;DHT22;11110;52.386;16.940;2023-04-29T06:31:32;25.30;39.10
21891;DHT22;11110;52.386;16.940;2023-04-29T06:34:03;25.30;39.10
21891;DHT22;11110;52.386;16.940;2023-04-29T06:36:36;25.20;39.20
21891;DHT22;11110;52.386;16.940;2023-04-29T06:39:18;25.30;39.20
21891;DHT22;11110;52.386;16.940;2023-04-29T06:42:06;25.30;39.30
21891;DHT22;11110;52.386;16.940;2023-04-29T06:45:13;25.40;39.60
21891;DHT22;11110;52.386;16.940;2023-04-29T06:47:56;25.50;39.20
21891;DHT22;11110;52.386;16.940;2023-04-29T06:50:38;25.60;39.20
21891;DHT22;11110;52.386;16.940;2023-04-29T06:53:08;25.60;38.90
21891;DHT22;11110;52.386;16.940;2023-04-29T06:55:37;25.70;39.10
21891;DHT22;11110;52.386;16.940;2023-04-29T06:58:05;25.80;39.10
21891;DHT22;11110;52.386;16.940;2023-04-29T07:00:33;25.90;39.10
21891;DHT22;11110;52.386;16.940;2023-04-29T07:03:03;25.90;39.10
21891;DHT22;11110;52.386;16.940;2023-04-29T07:05:31;26.00;39.30
21891;DHT22;11110;52.386;16.940;2023-04-29T07:08:01;26.00;39.00
21891;DHT22;11110;52.386;16.940;2023-04-29T07:10:31;26.00;38.80
21891;DHT22;11110;52.386;16.940;2023-04-29T07:13:00;26.10;38.80
21891;DHT22;11110;52.386;16.940;2023-04-29T07:15:29;26.20;38.90
21891;DHT22;11110;52.386;16.940;2023-04-29T07:17:58;26.20;38.60
21891;DHT22;11110;52.386;16.940;2023-04-29T07:20:26;26.20;38.60
21891;DHT22;11110;52.386;16.940;2023-04-29T07:22:55;26.30;38.30
21891;DHT22;11110;52.386;16.940;2023-04-29T07:25:25;26.30;38.40
21891;DHT22;11110;52.386;16.940;2023-04-29T07:27:56;26.30;38.40
21891;DHT22;11110;52.386;16.940;2023-04-29T07:30:25;26.30;38.30
21891;DHT22;11110;52.386;16.940;2023-04-29T07:32:53;26.40;38.40
21891;DHT22;11110;52.386;16.940;2023-04-29T07:35:23;26.10;38.10
21891;DHT22;11110;52.386;16.940;2023-04-29T07:37:51;26.10;38.30
21891;DHT22;11110;52.386;16.940;2023-04-29T07:40:20;26.10;38.40
21891;DHT22;11110;52.386;16.940;2023-04-29T07:42:49;26.10;38.40
21891;DHT22;11110;52.386;16.940;2023-04-29T07:45:18;26.20;38.60
21891;DHT22;11110;52.386;16.940;2023-04-29T07:47:47;26.30;38.50
21891;DHT22;11110;52.386;16.940;2023-04-29T07:50:15;26.30;38.60
21891;DHT22;11110;52.386;16.940;2023-04-29T07:52:44;26.40;38.80
21891;DHT22;11110;52.386;16.940;2023-04-29T07:55:15;26.40;38.70
21891;DHT22;11110;52.386;16.940;2023-04-29T07:57:44;26.40;38.60
21891;DHT22;11110;52.386;16.940;2023-04-29T08:00:13;26.50;39.00
21891;DHT22;11110;52.386;16.940;2023-04-29T08:02:43;26.60;38.80
21891;DHT22;11110;52.386;16.940;2023-04-29T08:05:14;26.60;38.60
21891;DHT22;11110;52.386;16.940;2023-04-29T08:07:46;26.60;38.90
21891;DHT22;11110;52.386;16.940;2023-04-29T08:10:15;26.80;38.70
21891;DHT22;11110;52.386;16.940;2023-04-29T08:12:44;26.80;38.80
21891;DHT22;11110;52.386;16.940;2023-04-29T08:15:13;26.90;38.80
21891;DHT22;11110;52.386;16.940;2023-04-29T08:17:43;26.90;38.50
21891;DHT22;11110;52.386;16.940;2023-04-29T08:20:12;27.00;39.00
21891;DHT22;11110;52.386;16.940;2023-04-29T08:22:41;27.10;39.00
21891;DHT22;11110;52.386;16.940;2023-04-29T08:25:10;27.10;38.30
21891;DHT22;11110;52.386;16.940;2023-04-29T08:27:38;27.20;38.20
21891;DHT22;11110;52.386;16.940;2023-04-29T08:30:09;27.20;38.40
21891;DHT22;11110;52.386;16.940;2023-04-29T08:32:38;27.30;38.10
21891;DHT22;11110;52.386;16.940;2023-04-29T08:35:09;27.40;38.00
21891;DHT22;11110;52.386;16.940;2023-04-29T08:37:37;27.50;38.10
21891;DHT22;11110;52.386;16.940;2023-04-29T08:40:08;27.50;37.80
21891;DHT22;11110;52.386;16.940;2023-04-29T08:42:37;27.50;37.30
21891;DHT22;11110;52.386;16.940;2023-04-29T08:45:05;27.50;37.20
21891;DHT22;11110;52.386;16.940;2023-04-29T08:47:35;27.50;37.30
21891;DHT22;11110;52.386;16.940;2023-04-29T08:50:05;27.60;37.40
21891;DHT22;11110;52.386;16.940;2023-04-29T08:52:35;27.50;37.20
21891;DHT22;11110;52.386;16.940;2023-04-29T08:55:04;27.60;37.50
21891;DHT22;11110;52.386;16.940;2023-04-29T08:57:35;27.60;38.10
21891;DHT22;11110;52.386;16.940;2023-04-29T09:00:07;27.60;37.40
21891;DHT22;11110;52.386;16.940;2023-04-29T09:02:42;27.70;37.50
21891;DHT22;11110;52.386;16.940;2023-04-29T09:05:12;27.80;37.60
21891;DHT22;11110;52.386;16.940;2023-04-29T09:07:43;27.80;37.30
21891;DHT22;11110;52.386;16.940;2023-04-29T09:10:12;27.90;37.40
21891;DHT22;11110;52.386;16.940;2023-04-29T09:12:41;28.00;37.20
21891;DHT22;11110;52.386;16.940;2023-04-29T09:15:10;28.00;37.60
21891;DHT22;11110;52.386;16.940;2023-04-29T09:17:43;28.00;37.30
21891;DHT22;11110;52.386;16.940;2023-04-29T09:20:29;28.00;37.40
21891;DHT22;11110;52.386;16.940;2023-04-29T09:23:01;27.80;37.40
21891;DHT22;11110;52.386;16.940;2023-04-29T09:25:30;27.80;37.60
21891;DHT22;11110;52.386;16.940;2023-04-29T09:28:13;27.90;37.90
21891;DHT22;11110;52.386;16.940;2023-04-29T09:30:45;28.00;37.80
21891;DHT22;11110;52.386;16.940;2023-04-29T09:33:14;28.10;37.80
21891;DHT22;11110;52.386;16.940;2023-04-29T09:35:43;28.20;37.80
21891;DHT22;11110;52.386;16.940;2023-04-29T09:38:15;28.20;37.80
21891;DHT22;11110;52.386;16.940;2023-04-29T09:40:43;28.30;37.70
21891;DHT22;11110;52.386;16.940;2023-04-29T09:43:25;28.40;37.40
21891;DHT22;11110;52.386;16.940;2023-04-29T09:45:54;28.40;36.90
21891;DHT22;11110;52.386;16.940;2023-04-29T09:48:30;28.50;36.40
21891;DHT22;11110;52.386;16.940;2023-04-29T09:51:00;28.50;36.20
21891;DHT22;11110;52.386;16.940;2023-04-29T09:53:31;28.50;36.20
21891;DHT22;11110;52.386;16.940;2023-04-29T09:56:04;28.60;36.10
21891;DHT22;11110;52.386;16.940;2023-04-29T09:58:34;28.60;35.80
21891;DHT22;11110;52.386;16.940;2023-04-29T10:01:04;28.60;35.90
21891;DHT22;11110;52.386;16.940;2023-04-29T10:03:35;28.50;36.00
21891;DHT22;11110;52.386;16.940;2023-04-29T10:06:06;28.30;36.70
21891;DHT22;11110;52.386;16.940;2023-04-29T10:08:37;28.40;36.90
21891;DHT22;11110;52.386;16.940;2023-04-29T10:11:09;28.40;37.00
21891;DHT22;11110;52.386;16.940;2023-04-29T10:13:41;28.50;36.90
21891;DHT22;11110;52.386;16.940;2023-04-29T10:16:25;28.60;36.70
21891;DHT22;11110;52.386;16.940;2023-04-29T10:18:59;28.60;36.50
21891;DHT22;11110;52.386;16.940;2023-04-29T10:21:30;28.60;36.80
21891;DHT22;11110;52.386;16.940;2023-04-29T10:24:01;28.50;36.80
21891;DHT22;11110;52.386;16.940;2023-04-29T10:26:31;28.60;36.60
21891;DHT22;11110;52.386;16.940;2023-04-29T10:29:04;28.30;36.90
21891;DHT22;11110;52.386;16.940;2023-04-29T10:31:35;28.20;37.20
21891;DHT22;11110;52.386;16.940;2023-04-29T10:34:04;28.20;37.40
21891;DHT22;11110;52.386;16.940;2023-04-29T10:36:34;28.20;37.40
21891;DHT22;11110;52.386;16.940;2023-04-29T10:39:08;28.30;37.80
21891;DHT22;11110;52.386;16.940;2023-04-29T10:41:43;28.50;37.70
21891;DHT22;11110;52.386;16.940;2023-04-29T10:44:13;28.50;37.60
21891;DHT22;11110;52.386;16.940;2023-04-29T10:46:41;28.60;37.30
21891;DHT22;11110;52.386;16.940;2023-04-29T10:49:10;28.80;37.00
21891;DHT22;11110;52.386;16.940;2023-04-29T10:51:41;28.80;36.90
21891;DHT22;11110;52.386;16.940;2023-04-29T10:54:14;28.90;36.90
21891;DHT22;11110;52.386;16.940;2023-04-29T10:56:47;28.90;36.70
21891;DHT22;11110;52.386;16.940;2023-04-29T10:59:20;29.00;36.70
21891;DHT22;11110;52.386;16.940;2023-04-29T11:01:49;29.10;36.60
21891;DHT22;11110;52.386;16.940;2023-04-29T11:04:21;29.20;37.00
21891;DHT22;11110;52.386;16.940;2023-04-29T11:06:52;29.30;37.00
21891;DHT22;11110;52.386;16.940;2023-04-29T11:09:25;29.40;37.20
21891;DHT22;11110;52.386;16.940;2023-04-29T11:11:58;29.40;37.20
21891;DHT22;11110;52.386;16.940;2023-04-29T11:14:31;29.50;37.40
21891;DHT22;11110;52.386;16.940;2023-04-29T11:17:02;29.50;37.20
21891;DHT22;11110;52.386;16.940;2023-04-29T11:19:32;29.60;37.10
21891;DHT22;11110;52.386;16.940;2023-04-29T11:22:12;29.70;37.20
21891;DHT22;11110;52.386;16.940;2023-04-29T11:24:50;29.80;38.00
21891;DHT22;11110;52.386;16.940;2023-04-29T11:27:21;29.80;37.40
21891;DHT22;11110;52.386;16.940;2023-04-29T11:29:53;29.50;37.40
21891;DHT22;11110;52.386;16.940;2023-04-29T11:32:25;29.50;37.90
21891;DHT22;11110;52.386;16.940;2023-04-29T11:34:56;29.50;38.10
21891;DHT22;11110;52.386;16.940;2023-04-29T11:37:34;29.50;38.30
21891;DHT22;11110;52.386;16.940;2023-04-29T11:40:05;29.40;38.10
21891;DHT22;11110;52.386;16.940;2023-04-29T11:42:35;29.50;37.90
21891;DHT22;11110;52.386;16.940;2023-04-29T11:45:04;29.50;38.20
21891;DHT22;11110;52.386;16.940;2023-04-29T11:47:33;29.60;38.20
21891;DHT22;11110;52.386;16.940;2023-04-29T11:50:03;29.60;38.30
21891;DHT22;11110;52.386;16.940;2023-04-29T11:52:32;29.70;38.20
21891;DHT22;11110;52.386;16.940;2023-04-29T11:55:01;29.80;38.90
21891;DHT22;11110;52.386;16.940;2023-04-29T11:57:31;29.90;38.00
21891;DHT22;11110;52.386;16.940;2023-04-29T12:00:00;29.90;37.80
21891;DHT22;11110;52.386;16.940;2023-04-29T12:02:34;30.00;38.00
21891;DHT22;11110;52.386;16.940;2023-04-29T12:05:05;30.00;38.10
21891;DHT22;11110;52.386;16.940;2023-04-29T12:07:34;30.10;38.20
21891;DHT22;11110;52.386;16.940;2023-04-29T12:10:07;30.00;38.30
21891;DHT22;11110;52.386;16.940;2023-04-29T12:12:38;30.10;38.50
21891;DHT22;11110;52.386;16.940;2023-04-29T12:15:10;30.10;38.60
21891;DHT22;11110;52.386;16.940;2023-04-29T12:17:39;30.10;39.20
21891;DHT22;11110;52.386;16.940;2023-04-29T12:20:09;30.10;39.20
21891;DHT22;11110;52.386;16.940;2023-04-29T12:22:39;30.10;39.20
21891;DHT22;11110;52.386;16.940;2023-04-29T12:25:10;30.20;39.20
21891;DHT22;11110;52.386;16.940;2023-04-29T12:27:40;30.10;39.20
21891;DHT22;11110;52.386;16.940;2023-04-29T12:30:10;30.20;39.40
21891;DHT22;11110;52.386;16.940;2023-04-29T12:32:39;30.20;39.30
21891;DHT22;11110;52.386;16.940;2023-04-29T12:35:14;30.30;39.40
21891;DHT22;11110;52.386;16.940;2023-04-29T12:37:47;30.30;39.40
21891;DHT22;11110;52.386;16.940;2023-04-29T12:40:16;30.30;39.30
21891;DHT22;11110;52.386;16.940;2023-04-29T12:42:47;30.30;39.20
21891;DHT22;11110;52.386;16.940;2023-04-29T12:45:26;30.30;39.20
21891;DHT22;11110;52.386;16.940;2023-04-29T12:47:56;30.40;39.10
21891;DHT22;11110;52.386;16.940;2023-04-29T12:50:30;30.30;39.10
21891;DHT22;11110;52.386;16.940;2023-04-29T12:53:00;30.40;39.40
21891;DHT22;11110;52.386;16.940;2023-04-29T12:55:29;30.50;39.40
21891;DHT22;11110;52.386;16.940;2023-04-29T12:57:59;30.50;39.20
21891;DHT22;11110;52.386;16.940;2023-04-29T13:00:29;30.50;39.10
21891;DHT22;11110;52.386;16.940;2023-04-29T13:02:58;30.50;39.00
21891;DHT22;11110;52.386;16.940;2023-04-29T13:05:27;30.50;38.90
21891;DHT22;11110;52.386;16.940;2023-04-29T13:07:56;30.60;38.80
21891;DHT22;11110;52.386;16.940;2023-04-29T13:10:24;30.60;38.70
21891;DHT22;11110;52.386;16.940;2023-04-29T13:12:54;30.70;38.50
21891;DHT22;11110;52.386;16.940;2023-04-29T13:15:24;30.60;38.20
21891;DHT22;11110;52.386;16.940;2023-04-29T13:17:53;30.80;38.40
21891;DHT22;11110;52.386;16.940;2023-04-29T13:20:22;30.80;37.90
21891;DHT22;11110;52.386;16.940;2023-04-29T13:22:50;30.80;38.00
21891;DHT22;11110;52.386;16.940;2023-04-29T13:25:19;30.90;38.10
21891;DHT22;11110;52.386;16.940;2023-04-29T13:27:47;30.90;38.00
21891;DHT22;11110;52.386;16.940;2023-04-29T13:30:16;31.00;38.10
21891;DHT22;11110;52.386;16.940;2023-04-29T13:32:45;30.80;38.00
21891;DHT22;11110;52.386;16.940;2023-04-29T13:35:22;30.80;38.20
21891;DHT22;11110;52.386;16.940;2023-04-29T13:37:51;30.80;38.60
21891;DHT22;11110;52.386;16.940;2023-04-29T13:40:19;30.70;39.90
21891;DHT22;11110;52.386;16.940;2023-04-29T13:42:48;30.70;41.60
21891;DHT22;11110;52.386;16.940;2023-04-29T13:45:31;30.60;42.50
21891;DHT22;11110;52.386;16.940;2023-04-29T13:48:07;30.50;42.60
21891;DHT22;11110;52.386;16.940;2023-04-29T13:50:56;30.50;42.30
21891;DHT22;11110;52.386;16.940;2023-04-29T13:53:44;30.40;42.20
21891;DHT22;11110;52.386;16.940;2023-04-29T13:56:15;30.40;42.10
21891;DHT22;11110;52.386;16.940;2023-04-29T13:58:47;30.30;42.00
21891;DHT22;11110;52.386;16.940;2023-04-29T14:01:19;30.20;39.50
21891;DHT22;11110;52.386;16.940;2023-04-29T14:03:52;30.10;39.30
21891;DHT22;11110;52.386;16.940;2023-04-29T14:06:21;30.10;39.50
21891;DHT22;11110;52.386;16.940;2023-04-29T14:08:50;30.00;40.30
21891;DHT22;11110;52.386;16.940;2023-04-29T14:11:18;29.90;40.70
21891;DHT22;11110;52.386;16.940;2023-04-29T14:13:46;29.70;41.90
21891;DHT22;11110;52.386;16.940;2023-04-29T14:16:15;29.60;41.70
21891;DHT22;11110;52.386;16.940;2023-04-29T14:18:44;29.40;42.30
21891;DHT22;11110;52.386;16.940;2023-04-29T14:21:14;29.30;42.40
21891;DHT22;11110;52.386;16.940;2023-04-29T14:23:42;29.20;43.00
21891;DHT22;11110;52.386;16.940;2023-04-29T14:26:11;29.00;43.20
21891;DHT22;11110;52.386;16.940;2023-04-29T14:28:42;28.90;43.20
21891;DHT22;11110;52.386;16.940;2023-04-29T14:31:11;28.80;43.20
21891;DHT22;11110;52.386;16.940;2023-04-29T14:33:41;28.70;43.20
21891;DHT22;11110;52.386;16.940;2023-04-29T14:36:10;28.70;43.80
21891;DHT22;11110;52.386;16.940;2023-04-29T14:38:40;28.60;43.70
21891;DHT22;11110;52.386;16.940;2023-04-29T14:41:08;28.60;44.20
21891;DHT22;11110;52.386;16.940;2023-04-29T14:43:37;28.60;44.40
21891;DHT22;11110;52.386;16.940;2023-04-29T14:46:06;28.60;45.10
21891;DHT22;11110;52.386;16.940;2023-04-29T14:48:34;28.50;45.20
21891;DHT22;11110;52.386;16.940;2023-04-29T14:51:03;28.50;45.50
21891;DHT22;11110;52.386;16.940;2023-04-29T14:53:32;28.50;46.50
21891;DHT22;11110;52.386;16.940;2023-04-29T14:56:02;28.40;46.20
21891;DHT22;11110;52.386;16.940;2023-04-29T14:58:30;28.40;46.40
21891;DHT22;11110;52.386;16.940;2023-04-29T15:00:59;28.40;46.80
21891;DHT22;11110;52.386;16.940;2023-04-29T15:03:27;28.40;46.90
21891;DHT22;11110;52.386;16.940;2023-04-29T15:05:56;28.50;47.00
21891;DHT22;11110;52.386;16.940;2023-04-29T15:08:25;28.50;47.20
21891;DHT22;11110;52.386;16.940;2023-04-29T15:10:53;28.50;47.30
21891;DHT22;11110;52.386;16.940;2023-04-29T15:13:23;28.60;46.90
21891;DHT22;11110;52.386;16.940;2023-04-29T15:15:52;28.80;47.10
21891;DHT22;11110;52.386;16.940;2023-04-29T15:18:20;28.80;47.10
21891;DHT22;11110;52.386;16.940;2023-04-29T15:20:49;28.90;47.10
21891;DHT22;11110;52.386;16.940;2023-04-29T15:23:17;29.00;47.10
21891;DHT22;11110;52.386;16.940;2023-04-29T15:25:46;29.00;47.20
21891;DHT22;11110;52.386;16.940;2023-04-29T15:28:14;29.10;46.90
21891;DHT22;11110;52.386;16.940;2023-04-29T15:30:45;29.10;47.50
21891;DHT22;11110;52.386;16.940;2023-04-29T15:33:13;29.10;47.10
21891;DHT22;11110;52.386;16.940;2023-04-29T15:35:42;29.00;46.90
21891;DHT22;11110;52.386;16.940;2023-04-29T15:38:10;29.10;46.80
21891;DHT22;11110;52.386;16.940;2023-04-29T15:40:39;29.00;46.90